sensor_id;sensor_type;location;lat;lon;timestamp;P1;durP1;ratioP1;P2;durP2;ratioP2
65162;SDS011;51751;55.714;37.436;2023-06-22T00:02:22;12.95;;;4.07;;
65162;SDS011;51751;55.714;37.436;2023-06-22T00:04:48;10.52;;;4.25;;
65162;SDS011;51751;55.714;37.436;2023-06-22T00:07:14;8.65;;;3.83;;
65162;SDS011;51751;55.714;37.436;2023-06-22T00:09:43;9.57;;;4.07;;
65162;SDS011;51751;55.714;37.436;2023-06-22T00:12:09;7.15;;;3.45;;
65162;SDS011;51751;55.714;37.436;2023-06-22T00:14:38;9.63;;;4.10;;
65162;SDS011;51751;55.714;37.436;2023-06-22T00:17:12;8.75;;;4.00;;
65162;SDS011;51751;55.714;37.436;2023-06-22T00:19:39;8.43;;;4.07;;
65162;SDS011;51751;55.714;37.436;2023-06-22T00:22:06;9.48;;;4.38;;
65162;SDS011;51751;55.714;37.436;2023-06-22T00:24:31;10.80;;;3.70;;
65162;SDS011;51751;55.714;37.436;2023-06-22T00:26:57;13.48;;;4.50;;
65162;SDS011;51751;55.714;37.436;2023-06-22T00:29:23;17.92;;;6.00;;
65162;SDS011;51751;55.714;37.436;2023-06-22T00:31:49;12.27;;;3.75;;
65162;SDS011;51751;55.714;37.436;2023-06-22T00:34:15;12.57;;;4.13;;
65162;SDS011;51751;55.714;37.436;2023-06-22T00:36:41;9.25;;;3.72;;
65162;SDS011;51751;55.714;37.436;2023-06-22T00:39:07;7.43;;;3.67;;
65162;SDS011;51751;55.714;37.436;2023-06-22T00:41:33;12.63;;;3.90;;
65162;SDS011;51751;55.714;37.436;2023-06-22T00:43:59;6.95;;;3.97;;
65162;SDS011;51751;55.714;37.436;2023-06-22T00:46:30;6.15;;;3.30;;
65162;SDS011;51751;55.714;37.436;2023-06-22T00:48:57;7.30;;;3.47;;
65162;SDS011;51751;55.714;37.436;2023-06-22T00:51:23;7.30;;;3.75;;
65162;SDS011;51751;55.714;37.436;2023-06-22T00:53:50;9.23;;;4.18;;
65162;SDS011;51751;55.714;37.436;2023-06-22T00:56:17;8.52;;;3.85;;
65162;SDS011;51751;55.714;37.436;2023-06-22T00:58:45;6.03;;;3.67;;
65162;SDS011;51751;55.714;37.436;2023-06-22T01:04:17;12.15;;;3.70;;
65162;SDS011;51751;55.714;37.436;2023-06-22T01:06:45;13.35;;;3.90;;
65162;SDS011;51751;55.714;37.436;2023-06-22T01:09:28;19.05;;;4.63;;
65162;SDS011;51751;55.714;37.436;2023-06-22T01:12:00;18.63;;;5.30;;
65162;SDS011;51751;55.714;37.436;2023-06-22T01:14:29;15.57;;;4.40;;
65162;SDS011;51751;55.714;37.436;2023-06-22T01:17:07;18.77;;;4.95;;
65162;SDS011;51751;55.714;37.436;2023-06-22T01:19:44;13.82;;;4.30;;
65162;SDS011;51751;55.714;37.436;2023-06-22T01:22:16;19.08;;;5.85;;
65162;SDS011;51751;55.714;37.436;2023-06-22T01:30:11;10.00;;;5.03;;
65162;SDS011;51751;55.714;37.436;2023-06-22T01:32:38;14.50;;;4.55;;
65162;SDS011;51751;55.714;37.436;2023-06-22T01:35:06;9.18;;;4.60;;
65162;SDS011;51751;55.714;37.436;2023-06-22T01:37:34;11.77;;;4.63;;
65162;SDS011;51751;55.714;37.436;2023-06-22T01:40:04;7.53;;;4.25;;
65162;SDS011;51751;55.714;37.436;2023-06-22T01:42:32;10.68;;;5.55;;
65162;SDS011;51751;55.714;37.436;2023-06-22T01:45:02;16.27;;;4.50;;
65162;SDS011;51751;55.714;37.436;2023-06-22T01:47:32;10.07;;;4.50;;
65162;SDS011;51751;55.714;37.436;2023-06-22T01:49:58;14.93;;;5.18;;
65162;SDS011;51751;55.714;37.436;2023-06-22T01:52:25;16.67;;;5.15;;
65162;SDS011;51751;55.714;37.436;2023-06-22T01:54:51;10.98;;;4.35;;
65162;SDS011;51751;55.714;37.436;2023-06-22T01:57:18;22.17;;;6.47;;
65162;SDS011;51751;55.714;37.436;2023-06-22T02:00:01;23.08;;;6.75;;
65162;SDS011;51751;55.714;37.436;2023-06-22T02:02:52;18.98;;;5.30;;
65162;SDS011;51751;55.714;37.436;2023-06-22T02:05:28;12.50;;;4.72;;
65162;SDS011;51751;55.714;37.436;2023-06-22T02:08:17;12.13;;;5.13;;
65162;SDS011;51751;55.714;37.436;2023-06-22T02:10:48;15.52;;;5.25;;
65162;SDS011;51751;55.714;37.436;2023-06-22T02:13:16;15.60;;;5.20;;
65162;SDS011;51751;55.714;37.436;2023-06-22T02:15:43;19.42;;;5.47;;
65162;SDS011;51751;55.714;37.436;2023-06-22T02:18:12;14.18;;;5.13;;
65162;SDS011;51751;55.714;37.436;2023-06-22T02:20:40;17.98;;;5.50;;
65162;SDS011;51751;55.714;37.436;2023-06-22T02:23:06;13.05;;;4.95;;
65162;SDS011;51751;55.714;37.436;2023-06-22T02:25:51;8.02;;;4.13;;
65162;SDS011;51751;55.714;37.436;2023-06-22T02:28:17;11.25;;;4.60;;
65162;SDS011;51751;55.714;37.436;2023-06-22T02:30:44;10.13;;;4.55;;
65162;SDS011;51751;55.714;37.436;2023-06-22T02:33:13;5.88;;;4.22;;
65162;SDS011;51751;55.714;37.436;2023-06-22T02:35:39;8.98;;;4.32;;
65162;SDS011;51751;55.714;37.436;2023-06-22T02:38:20;11.05;;;4.20;;
65162;SDS011;51751;55.714;37.436;2023-06-22T02:40:46;12.93;;;4.45;;
65162;SDS011;51751;55.714;37.436;2023-06-22T02:43:16;10.80;;;4.22;;
65162;SDS011;51751;55.714;37.436;2023-06-22T02:45:43;13.77;;;4.93;;
65162;SDS011;51751;55.714;37.436;2023-06-22T02:48:11;11.27;;;4.95;;
65162;SDS011;51751;55.714;37.436;2023-06-22T02:50:37;10.88;;;4.70;;
65162;SDS011;51751;55.714;37.436;2023-06-22T02:53:04;21.70;;;5.65;;
65162;SDS011;51751;55.714;37.436;2023-06-22T02:55:35;14.75;;;5.10;;
65162;SDS011;51751;55.714;37.436;2023-06-22T02:58:01;15.02;;;5.05;;
65162;SDS011;51751;55.714;37.436;2023-06-22T03:00:33;12.95;;;4.80;;
65162;SDS011;51751;55.714;37.436;2023-06-22T03:03:00;27.58;;;5.10;;
65162;SDS011;51751;55.714;37.436;2023-06-22T03:05:26;25.85;;;5.90;;
65162;SDS011;51751;55.714;37.436;2023-06-22T03:07:53;31.05;;;6.15;;
65162;SDS011;51751;55.714;37.436;2023-06-22T03:10:19;46.28;;;5.30;;
65162;SDS011;51751;55.714;37.436;2023-06-22T03:12:44;27.45;;;5.75;;
65162;SDS011;51751;55.714;37.436;2023-06-22T03:15:11;28.98;;;5.07;;
65162;SDS011;51751;55.714;37.436;2023-06-22T03:17:38;14.80;;;4.82;;
65162;SDS011;51751;55.714;37.436;2023-06-22T03:20:07;16.65;;;4.30;;
65162;SDS011;51751;55.714;37.436;2023-06-22T03:22:37;20.02;;;5.43;;
65162;SDS011;51751;55.714;37.436;2023-06-22T03:25:05;18.63;;;4.72;;
65162;SDS011;51751;55.714;37.436;2023-06-22T03:27:49;16.83;;;5.97;;
65162;SDS011;51751;55.714;37.436;2023-06-22T03:30:15;11.20;;;4.45;;
65162;SDS011;51751;55.714;37.436;2023-06-22T03:32:41;12.27;;;4.43;;
65162;SDS011;51751;55.714;37.436;2023-06-22T03:35:08;24.33;;;4.78;;
65162;SDS011;51751;55.714;37.436;2023-06-22T03:37:36;18.08;;;5.63;;
65162;SDS011;51751;55.714;37.436;2023-06-22T03:40:02;24.90;;;5.18;;
65162;SDS011;51751;55.714;37.436;2023-06-22T03:42:35;16.20;;;4.95;;
65162;SDS011;51751;55.714;37.436;2023-06-22T03:45:02;25.48;;;5.63;;
65162;SDS011;51751;55.714;37.436;2023-06-22T03:47:34;17.05;;;5.80;;
65162;SDS011;51751;55.714;37.436;2023-06-22T03:50:00;15.77;;;6.20;;
65162;SDS011;51751;55.714;37.436;2023-06-22T03:52:34;14.10;;;4.70;;
65162;SDS011;51751;55.714;37.436;2023-06-22T03:55:01;8.57;;;5.00;;
65162;SDS011;51751;55.714;37.436;2023-06-22T03:57:30;12.63;;;4.45;;
65162;SDS011;51751;55.714;37.436;2023-06-22T03:59:56;10.25;;;4.35;;
65162;SDS011;51751;55.714;37.436;2023-06-22T04:02:23;8.70;;;4.65;;
65162;SDS011;51751;55.714;37.436;2023-06-22T04:04:49;14.07;;;4.55;;
65162;SDS011;51751;55.714;37.436;2023-06-22T04:07:15;13.38;;;4.13;;
65162;SDS011;51751;55.714;37.436;2023-06-22T04:09:43;13.27;;;4.20;;
65162;SDS011;51751;55.714;37.436;2023-06-22T04:12:09;10.23;;;4.30;;
65162;SDS011;51751;55.714;37.436;2023-06-22T04:14:38;26.67;;;4.60;;
65162;SDS011;51751;55.714;37.436;2023-06-22T04:17:04;13.18;;;4.40;;
65162;SDS011;51751;55.714;37.436;2023-06-22T04:19:30;13.50;;;3.92;;
65162;SDS011;51751;55.714;37.436;2023-06-22T04:21:59;11.95;;;4.32;;
65162;SDS011;51751;55.714;37.436;2023-06-22T04:24:25;17.38;;;4.22;;
65162;SDS011;51751;55.714;37.436;2023-06-22T04:26:51;7.22;;;3.75;;
65162;SDS011;51751;55.714;37.436;2023-06-22T04:29:20;9.15;;;4.30;;
65162;SDS011;51751;55.714;37.436;2023-06-22T04:31:54;10.45;;;4.40;;
65162;SDS011;51751;55.714;37.436;2023-06-22T04:34:21;10.13;;;4.25;;
65162;SDS011;51751;55.714;37.436;2023-06-22T04:36:47;7.72;;;4.25;;
65162;SDS011;51751;55.714;37.436;2023-06-22T04:39:14;11.43;;;4.70;;
65162;SDS011;51751;55.714;37.436;2023-06-22T04:41:40;11.25;;;3.78;;
65162;SDS011;51751;55.714;37.436;2023-06-22T04:44:10;11.20;;;3.60;;
65162;SDS011;51751;55.714;37.436;2023-06-22T04:46:36;9.38;;;3.60;;
65162;SDS011;51751;55.714;37.436;2023-06-22T04:49:04;7.32;;;3.47;;
65162;SDS011;51751;55.714;37.436;2023-06-22T04:51:40;8.15;;;3.40;;
65162;SDS011;51751;55.714;37.436;2023-06-22T04:54:08;10.35;;;3.15;;
65162;SDS011;51751;55.714;37.436;2023-06-22T04:56:34;4.78;;;3.15;;
65162;SDS011;51751;55.714;37.436;2023-06-22T04:59:01;9.60;;;3.25;;
65162;SDS011;51751;55.714;37.436;2023-06-22T05:01:28;7.00;;;3.05;;
65162;SDS011;51751;55.714;37.436;2023-06-22T05:04:00;8.13;;;3.03;;
65162;SDS011;51751;55.714;37.436;2023-06-22T05:06:28;8.98;;;2.90;;
65162;SDS011;51751;55.714;37.436;2023-06-22T05:08:54;12.65;;;3.20;;
65162;SDS011;51751;55.714;37.436;2023-06-22T05:11:24;4.72;;;2.92;;
65162;SDS011;51751;55.714;37.436;2023-06-22T05:13:56;5.80;;;2.83;;
65162;SDS011;51751;55.714;37.436;2023-06-22T05:16:22;7.43;;;3.00;;
65162;SDS011;51751;55.714;37.436;2023-06-22T05:18:52;7.03;;;2.90;;
65162;SDS011;51751;55.714;37.436;2023-06-22T05:21:25;7.47;;;3.00;;
65162;SDS011;51751;55.714;37.436;2023-06-22T05:23:54;4.82;;;2.80;;
65162;SDS011;51751;55.714;37.436;2023-06-22T05:26:21;3.25;;;2.72;;
65162;SDS011;51751;55.714;37.436;2023-06-22T05:28:50;11.13;;;2.80;;
65162;SDS011;51751;55.714;37.436;2023-06-22T05:31:16;5.00;;;2.90;;
65162;SDS011;51751;55.714;37.436;2023-06-22T05:33:43;5.75;;;2.78;;
65162;SDS011;51751;55.714;37.436;2023-06-22T05:36:09;4.88;;;2.90;;
65162;SDS011;51751;55.714;37.436;2023-06-22T05:38:39;8.20;;;2.90;;
65162;SDS011;51751;55.714;37.436;2023-06-22T05:41:06;5.63;;;2.92;;
65162;SDS011;51751;55.714;37.436;2023-06-22T05:43:33;8.25;;;3.03;;
65162;SDS011;51751;55.714;37.436;2023-06-22T05:46:01;8.07;;;3.08;;
65162;SDS011;51751;55.714;37.436;2023-06-22T05:48:27;7.03;;;2.65;;
65162;SDS011;51751;55.714;37.436;2023-06-22T05:50:53;11.07;;;2.75;;
65162;SDS011;51751;55.714;37.436;2023-06-22T05:53:19;5.15;;;2.60;;
65162;SDS011;51751;55.714;37.436;2023-06-22T05:55:49;8.40;;;2.65;;
65162;SDS011;51751;55.714;37.436;2023-06-22T05:58:15;5.38;;;3.05;;
65162;SDS011;51751;55.714;37.436;2023-06-22T06:00:42;6.55;;;3.17;;
65162;SDS011;51751;55.714;37.436;2023-06-22T06:03:11;6.38;;;2.55;;
65162;SDS011;51751;55.714;37.436;2023-06-22T06:05:37;7.43;;;2.60;;
65162;SDS011;51751;55.714;37.436;2023-06-22T06:08:04;5.18;;;2.80;;
65162;SDS011;51751;55.714;37.436;2023-06-22T06:10:34;6.00;;;2.70;;
65162;SDS011;51751;55.714;37.436;2023-06-22T06:13:00;5.53;;;2.65;;
65162;SDS011;51751;55.714;37.436;2023-06-22T06:15:34;3.78;;;2.70;;
65162;SDS011;51751;55.714;37.436;2023-06-22T06:18:00;4.60;;;2.65;;
65162;SDS011;51751;55.714;37.436;2023-06-22T06:20:30;5.40;;;2.80;;
65162;SDS011;51751;55.714;37.436;2023-06-22T06:23:02;10.60;;;3.10;;
65162;SDS011;51751;55.714;37.436;2023-06-22T06:25:28;8.32;;;2.92;;
65162;SDS011;51751;55.714;37.436;2023-06-22T06:27:54;6.25;;;3.03;;
65162;SDS011;51751;55.714;37.436;2023-06-22T06:30:26;7.65;;;3.05;;
65162;SDS011;51751;55.714;37.436;2023-06-22T06:32:52;6.18;;;2.85;;
65162;SDS011;51751;55.714;37.436;2023-06-22T06:35:18;5.93;;;2.83;;
65162;SDS011;51751;55.714;37.436;2023-06-22T06:37:44;4.70;;;2.67;;
65162;SDS011;51751;55.714;37.436;2023-06-22T06:40:13;5.18;;;2.60;;
65162;SDS011;51751;55.714;37.436;2023-06-22T06:42:41;4.53;;;2.95;;
65162;SDS011;51751;55.714;37.436;2023-06-22T06:45:10;3.67;;;2.70;;
65162;SDS011;51751;55.714;37.436;2023-06-22T06:47:44;4.82;;;2.70;;
65162;SDS011;51751;55.714;37.436;2023-06-22T06:50:10;7.93;;;3.08;;
65162;SDS011;51751;55.714;37.436;2023-06-22T06:52:42;7.38;;;2.97;;
65162;SDS011;51751;55.714;37.436;2023-06-22T06:55:09;4.68;;;3.03;;
65162;SDS011;51751;55.714;37.436;2023-06-22T06:57:39;5.88;;;2.88;;
65162;SDS011;51751;55.714;37.436;2023-06-22T07:00:10;6.20;;;2.90;;
65162;SDS011;51751;55.714;37.436;2023-06-22T07:02:39;7.47;;;3.35;;
65162;SDS011;51751;55.714;37.436;2023-06-22T07:05:07;4.32;;;2.80;;
65162;SDS011;51751;55.714;37.436;2023-06-22T07:07:39;5.20;;;3.10;;
65162;SDS011;51751;55.714;37.436;2023-06-22T07:10:05;7.57;;;3.40;;
65162;SDS011;51751;55.714;37.436;2023-06-22T07:12:32;9.63;;;3.10;;
65162;SDS011;51751;55.714;37.436;2023-06-22T07:15:04;10.02;;;2.83;;
65162;SDS011;51751;55.714;37.436;2023-06-22T07:17:34;5.95;;;2.95;;
65162;SDS011;51751;55.714;37.436;2023-06-22T07:20:00;7.18;;;2.60;;
65162;SDS011;51751;55.714;37.436;2023-06-22T07:22:29;6.57;;;2.70;;
65162;SDS011;51751;55.714;37.436;2023-06-22T07:24:56;4.45;;;3.10;;
65162;SDS011;51751;55.714;37.436;2023-06-22T07:27:25;9.38;;;3.60;;
65162;SDS011;51751;55.714;37.436;2023-06-22T07:29:53;10.50;;;2.85;;
65162;SDS011;51751;55.714;37.436;2023-06-22T07:32:22;5.97;;;2.97;;
65162;SDS011;51751;55.714;37.436;2023-06-22T07:34:48;6.18;;;3.30;;
65162;SDS011;51751;55.714;37.436;2023-06-22T07:37:14;8.95;;;3.17;;
65162;SDS011;51751;55.714;37.436;2023-06-22T07:39:40;6.28;;;3.03;;
65162;SDS011;51751;55.714;37.436;2023-06-22T07:42:07;6.15;;;3.20;;
65162;SDS011;51751;55.714;37.436;2023-06-22T07:44:37;9.32;;;3.33;;
65162;SDS011;51751;55.714;37.436;2023-06-22T07:47:03;5.68;;;2.78;;
65162;SDS011;51751;55.714;37.436;2023-06-22T07:49:31;6.70;;;3.35;;
65162;SDS011;51751;55.714;37.436;2023-06-22T07:51:57;5.25;;;2.72;;
65162;SDS011;51751;55.714;37.436;2023-06-22T07:54:26;9.57;;;3.10;;
65162;SDS011;51751;55.714;37.436;2023-06-22T07:56:53;12.23;;;2.92;;
65162;SDS011;51751;55.714;37.436;2023-06-22T07:59:21;5.80;;;2.83;;
65162;SDS011;51751;55.714;37.436;2023-06-22T08:01:48;6.93;;;3.33;;
65162;SDS011;51751;55.714;37.436;2023-06-22T08:04:14;7.03;;;3.70;;
65162;SDS011;51751;55.714;37.436;2023-06-22T08:06:41;5.55;;;3.17;;
65162;SDS011;51751;55.714;37.436;2023-06-22T08:09:07;7.25;;;3.03;;
65162;SDS011;51751;55.714;37.436;2023-06-22T08:11:33;23.60;;;4.05;;
65162;SDS011;51751;55.714;37.436;2023-06-22T08:13:59;9.15;;;3.10;;
65162;SDS011;51751;55.714;37.436;2023-06-22T08:16:25;4.45;;;2.83;;
65162;SDS011;51751;55.714;37.436;2023-06-22T08:18:51;3.28;;;2.70;;
65162;SDS011;51751;55.714;37.436;2023-06-22T08:21:18;7.72;;;3.10;;
65162;SDS011;51751;55.714;37.436;2023-06-22T08:23:44;4.45;;;2.90;;
65162;SDS011;51751;55.714;37.436;2023-06-22T08:26:10;5.60;;;3.22;;
65162;SDS011;51751;55.714;37.436;2023-06-22T08:28:36;15.38;;;4.05;;
65162;SDS011;51751;55.714;37.436;2023-06-22T08:31:05;5.10;;;3.03;;
65162;SDS011;51751;55.714;37.436;2023-06-22T08:33:31;6.35;;;3.00;;
65162;SDS011;51751;55.714;37.436;2023-06-22T08:35:58;5.28;;;2.70;;
65162;SDS011;51751;55.714;37.436;2023-06-22T08:38:24;5.93;;;2.90;;
65162;SDS011;51751;55.714;37.436;2023-06-22T08:40:50;6.88;;;2.88;;
65162;SDS011;51751;55.714;37.436;2023-06-22T08:43:16;6.60;;;2.83;;
65162;SDS011;51751;55.714;37.436;2023-06-22T08:45:42;4.53;;;2.75;;
65162;SDS011;51751;55.714;37.436;2023-06-22T08:48:08;14.65;;;3.67;;
65162;SDS011;51751;55.714;37.436;2023-06-22T08:50:34;6.07;;;2.90;;
65162;SDS011;51751;55.714;37.436;2023-06-22T08:53:00;9.93;;;3.38;;
65162;SDS011;51751;55.714;37.436;2023-06-22T08:55:27;5.55;;;3.00;;
65162;SDS011;51751;55.714;37.436;2023-06-22T08:57:53;11.02;;;3.65;;
65162;SDS011;51751;55.714;37.436;2023-06-22T09:00:21;6.53;;;3.08;;
65162;SDS011;51751;55.714;37.436;2023-06-22T09:02:49;10.38;;;3.17;;
65162;SDS011;51751;55.714;37.436;2023-06-22T09:05:15;7.72;;;3.22;;
65162;SDS011;51751;55.714;37.436;2023-06-22T09:07:41;4.20;;;3.08;;
65162;SDS011;51751;55.714;37.436;2023-06-22T09:10:14;4.22;;;2.90;;
65162;SDS011;51751;55.714;37.436;2023-06-22T09:12:39;11.48;;;3.55;;
65162;SDS011;51751;55.714;37.436;2023-06-22T09:15:06;17.65;;;4.22;;
65162;SDS011;51751;55.714;37.436;2023-06-22T09:17:34;10.52;;;3.42;;
65162;SDS011;51751;55.714;37.436;2023-06-22T09:20:01;11.68;;;3.70;;
65162;SDS011;51751;55.714;37.436;2023-06-22T09:22:31;10.70;;;3.40;;
65162;SDS011;51751;55.714;37.436;2023-06-22T09:24:58;6.22;;;3.40;;
65162;SDS011;51751;55.714;37.436;2023-06-22T09:27:25;3.63;;;3.10;;
65162;SDS011;51751;55.714;37.436;2023-06-22T09:29:53;4.88;;;2.80;;
65162;SDS011;51751;55.714;37.436;2023-06-22T09:32:20;7.28;;;3.17;;
65162;SDS011;51751;55.714;37.436;2023-06-22T09:34:46;5.22;;;3.03;;
65162;SDS011;51751;55.714;37.436;2023-06-22T09:37:12;5.25;;;3.33;;
65162;SDS011;51751;55.714;37.436;2023-06-22T09:39:39;7.57;;;3.25;;
65162;SDS011;51751;55.714;37.436;2023-06-22T09:42:05;5.90;;;3.35;;
65162;SDS011;51751;55.714;37.436;2023-06-22T09:44:32;5.18;;;3.20;;
65162;SDS011;51751;55.714;37.436;2023-06-22T09:47:07;7.57;;;3.10;;
65162;SDS011;51751;55.714;37.436;2023-06-22T09:49:33;6.38;;;3.53;;
65162;SDS011;51751;55.714;37.436;2023-06-22T09:51:59;7.75;;;3.80;;
65162;SDS011;51751;55.714;37.436;2023-06-22T09:54:28;5.97;;;3.20;;
65162;SDS011;51751;55.714;37.436;2023-06-22T09:56:56;5.05;;;3.38;;
65162;SDS011;51751;55.714;37.436;2023-06-22T09:59:23;7.82;;;3.47;;
65162;SDS011;51751;55.714;37.436;2023-06-22T10:01:49;4.07;;;2.95;;
65162;SDS011;51751;55.714;37.436;2023-06-22T10:04:17;5.50;;;3.78;;
65162;SDS011;51751;55.714;37.436;2023-06-22T10:06:43;8.73;;;3.90;;
65162;SDS011;51751;55.714;37.436;2023-06-22T10:09:10;9.52;;;3.65;;
65162;SDS011;51751;55.714;37.436;2023-06-22T10:11:36;4.80;;;3.35;;
65162;SDS011;51751;55.714;37.436;2023-06-22T10:14:05;6.38;;;3.60;;
65162;SDS011;51751;55.714;37.436;2023-06-22T10:16:31;6.93;;;3.67;;
65162;SDS011;51751;55.714;37.436;2023-06-22T10:18:58;5.43;;;3.40;;
65162;SDS011;51751;55.714;37.436;2023-06-22T10:21:24;4.38;;;3.35;;
65162;SDS011;51751;55.714;37.436;2023-06-22T10:23:56;6.97;;;3.38;;
65162;SDS011;51751;55.714;37.436;2023-06-22T10:26:32;4.97;;;3.47;;
65162;SDS011;51751;55.714;37.436;2023-06-22T10:28:59;7.45;;;3.80;;
65162;SDS011;51751;55.714;37.436;2023-06-22T10:31:25;7.18;;;3.40;;
65162;SDS011;51751;55.714;37.436;2023-06-22T10:33:53;6.10;;;3.58;;
65162;SDS011;51751;55.714;37.436;2023-06-22T10:36:20;6.18;;;3.60;;
65162;SDS011;51751;55.714;37.436;2023-06-22T10:38:51;6.75;;;3.45;;
65162;SDS011;51751;55.714;37.436;2023-06-22T10:41:18;3.97;;;3.45;;
65162;SDS011;51751;55.714;37.436;2023-06-22T10:43:44;5.50;;;3.55;;
65162;SDS011;51751;55.714;37.436;2023-06-22T10:46:10;6.35;;;3.70;;
65162;SDS011;51751;55.714;37.436;2023-06-22T10:48:36;8.13;;;3.45;;
65162;SDS011;51751;55.714;37.436;2023-06-22T10:51:02;5.75;;;3.30;;
65162;SDS011;51751;55.714;37.436;2023-06-22T10:53:28;6.38;;;3.17;;
65162;SDS011;51751;55.714;37.436;2023-06-22T10:55:57;7.40;;;3.70;;
65162;SDS011;51751;55.714;37.436;2023-06-22T10:58:26;6.10;;;3.20;;
65162;SDS011;51751;55.714;37.436;2023-06-22T11:00:52;13.15;;;3.80;;
65162;SDS011;51751;55.714;37.436;2023-06-22T11:03:22;14.52;;;3.78;;
65162;SDS011;51751;55.714;37.436;2023-06-22T11:05:48;8.25;;;3.58;;
65162;SDS011;51751;55.714;37.436;2023-06-22T11:08:14;9.77;;;3.55;;
65162;SDS011;51751;55.714;37.436;2023-06-22T11:10:40;12.85;;;4.47;;
65162;SDS011;51751;55.714;37.436;2023-06-22T11:13:06;11.63;;;3.83;;
65162;SDS011;51751;55.714;37.436;2023-06-22T11:15:35;7.38;;;3.50;;
65162;SDS011;51751;55.714;37.436;2023-06-22T11:18:04;6.03;;;3.42;;
65162;SDS011;51751;55.714;37.436;2023-06-22T11:20:38;4.70;;;3.17;;
65162;SDS011;51751;55.714;37.436;2023-06-22T11:23:04;4.95;;;3.42;;
65162;SDS011;51751;55.714;37.436;2023-06-22T11:25:34;11.32;;;3.90;;
65162;SDS011;51751;55.714;37.436;2023-06-22T11:28:06;8.48;;;3.67;;
65162;SDS011;51751;55.714;37.436;2023-06-22T11:30:32;7.10;;;3.50;;
65162;SDS011;51751;55.714;37.436;2023-06-22T11:32:58;10.15;;;3.67;;
65162;SDS011;51751;55.714;37.436;2023-06-22T11:35:24;12.05;;;3.92;;
65162;SDS011;51751;55.714;37.436;2023-06-22T11:37:54;4.90;;;3.33;;
65162;SDS011;51751;55.714;37.436;2023-06-22T11:40:24;4.15;;;3.20;;
65162;SDS011;51751;55.714;37.436;2023-06-22T11:42:50;8.95;;;3.72;;
65162;SDS011;51751;55.714;37.436;2023-06-22T11:45:19;7.05;;;3.60;;
65162;SDS011;51751;55.714;37.436;2023-06-22T11:47:46;7.25;;;3.75;;
65162;SDS011;51751;55.714;37.436;2023-06-22T11:50:13;8.45;;;4.38;;
65162;SDS011;51751;55.714;37.436;2023-06-22T11:52:39;9.35;;;3.88;;
65162;SDS011;51751;55.714;37.436;2023-06-22T11:55:08;15.70;;;4.35;;
65162;SDS011;51751;55.714;37.436;2023-06-22T11:57:35;7.28;;;3.67;;
65162;SDS011;51751;55.714;37.436;2023-06-22T12:00:02;7.38;;;3.60;;
65162;SDS011;51751;55.714;37.436;2023-06-22T12:02:42;5.57;;;3.10;;
65162;SDS011;51751;55.714;37.436;2023-06-22T12:05:10;8.32;;;3.60;;
65162;SDS011;51751;55.714;37.436;2023-06-22T12:07:36;7.70;;;3.63;;
65162;SDS011;51751;55.714;37.436;2023-06-22T12:10:03;4.50;;;3.35;;
65162;SDS011;51751;55.714;37.436;2023-06-22T12:12:32;5.65;;;3.58;;
65162;SDS011;51751;55.714;37.436;2023-06-22T12:14:58;5.72;;;3.90;;
65162;SDS011;51751;55.714;37.436;2023-06-22T12:17:31;8.10;;;3.72;;
65162;SDS011;51751;55.714;37.436;2023-06-22T12:19:58;7.72;;;3.30;;
65162;SDS011;51751;55.714;37.436;2023-06-22T12:22:23;7.05;;;3.20;;
65162;SDS011;51751;55.714;37.436;2023-06-22T12:24:49;6.43;;;3.22;;
65162;SDS011;51751;55.714;37.436;2023-06-22T12:27:16;6.28;;;3.30;;
65162;SDS011;51751;55.714;37.436;2023-06-22T12:29:46;5.88;;;3.25;;
65162;SDS011;51751;55.714;37.436;2023-06-22T12:32:13;5.75;;;3.25;;
65162;SDS011;51751;55.714;37.436;2023-06-22T12:34:48;5.15;;;3.35;;
65162;SDS011;51751;55.714;37.436;2023-06-22T12:37:14;5.43;;;3.33;;
65162;SDS011;51751;55.714;37.436;2023-06-22T12:39:41;5.53;;;3.40;;
65162;SDS011;51751;55.714;37.436;2023-06-22T12:42:07;3.85;;;3.42;;
65162;SDS011;51751;55.714;37.436;2023-06-22T12:44:34;3.60;;;3.30;;
65162;SDS011;51751;55.714;37.436;2023-06-22T12:47:22;10.35;;;3.72;;
65162;SDS011;51751;55.714;37.436;2023-06-22T12:49:48;4.47;;;3.33;;
65162;SDS011;51751;55.714;37.436;2023-06-22T12:52:14;6.10;;;3.53;;
65162;SDS011;51751;55.714;37.436;2023-06-22T12:54:40;4.97;;;3.75;;
65162;SDS011;51751;55.714;37.436;2023-06-22T12:57:06;7.57;;;3.22;;
65162;SDS011;51751;55.714;37.436;2023-06-22T12:59:32;10.27;;;3.60;;
65162;SDS011;51751;55.714;37.436;2023-06-22T13:01:58;5.57;;;3.40;;
65162;SDS011;51751;55.714;37.436;2023-06-22T13:04:24;5.25;;;3.10;;
65162;SDS011;51751;55.714;37.436;2023-06-22T13:06:50;8.27;;;3.70;;
65162;SDS011;51751;55.714;37.436;2023-06-22T13:09:18;5.47;;;3.58;;
65162;SDS011;51751;55.714;37.436;2023-06-22T13:11:44;7.10;;;3.55;;
65162;SDS011;51751;55.714;37.436;2023-06-22T13:14:10;8.70;;;3.88;;
65162;SDS011;51751;55.714;37.436;2023-06-22T13:16:36;12.18;;;3.90;;
65162;SDS011;51751;55.714;37.436;2023-06-22T13:19:03;21.25;;;4.75;;
65162;SDS011;51751;55.714;37.436;2023-06-22T13:21:30;12.07;;;4.25;;
65162;SDS011;51751;55.714;37.436;2023-06-22T13:24:01;5.40;;;3.65;;
65162;SDS011;51751;55.714;37.436;2023-06-22T13:26:28;5.68;;;3.60;;
65162;SDS011;51751;55.714;37.436;2023-06-22T13:28:59;5.32;;;3.78;;
65162;SDS011;51751;55.714;37.436;2023-06-22T13:31:25;7.93;;;3.85;;
65162;SDS011;51751;55.714;37.436;2023-06-22T13:33:51;8.65;;;3.88;;
65162;SDS011;51751;55.714;37.436;2023-06-22T13:36:18;4.68;;;3.60;;
65162;SDS011;51751;55.714;37.436;2023-06-22T13:38:45;18.55;;;4.75;;
65162;SDS011;51751;55.714;37.436;2023-06-22T13:41:11;16.45;;;4.78;;
65162;SDS011;51751;55.714;37.436;2023-06-22T13:43:59;13.05;;;3.75;;
65162;SDS011;51751;55.714;37.436;2023-06-22T13:46:28;6.78;;;3.53;;
65162;SDS011;51751;55.714;37.436;2023-06-22T13:48:54;6.35;;;3.75;;
65162;SDS011;51751;55.714;37.436;2023-06-22T13:51:23;11.98;;;4.35;;
65162;SDS011;51751;55.714;37.436;2023-06-22T13:53:49;10.43;;;4.07;;
65162;SDS011;51751;55.714;37.436;2023-06-22T13:56:18;11.68;;;4.10;;
65162;SDS011;51751;55.714;37.436;2023-06-22T13:58:47;7.10;;;3.83;;
65162;SDS011;51751;55.714;37.436;2023-06-22T14:01:13;13.80;;;4.47;;
65162;SDS011;51751;55.714;37.436;2023-06-22T14:03:39;9.55;;;4.15;;
65162;SDS011;51751;55.714;37.436;2023-06-22T14:06:05;8.13;;;3.65;;
65162;SDS011;51751;55.714;37.436;2023-06-22T14:08:35;9.80;;;4.15;;
65162;SDS011;51751;55.714;37.436;2023-06-22T14:11:04;9.65;;;4.18;;
65162;SDS011;51751;55.714;37.436;2023-06-22T14:13:33;12.35;;;3.97;;
65162;SDS011;51751;55.714;37.436;2023-06-22T14:16:01;7.88;;;3.75;;
65162;SDS011;51751;55.714;37.436;2023-06-22T14:18:27;7.47;;;3.88;;
65162;SDS011;51751;55.714;37.436;2023-06-22T14:20:53;12.93;;;4.30;;
65162;SDS011;51751;55.714;37.436;2023-06-22T14:23:19;7.57;;;3.67;;
65162;SDS011;51751;55.714;37.436;2023-06-22T14:25:46;5.07;;;3.75;;
65162;SDS011;51751;55.714;37.436;2023-06-22T14:28:12;8.23;;;4.10;;
65162;SDS011;51751;55.714;37.436;2023-06-22T14:30:38;6.70;;;3.90;;
65162;SDS011;51751;55.714;37.436;2023-06-22T14:33:11;6.13;;;3.70;;
65162;SDS011;51751;55.714;37.436;2023-06-22T14:35:42;5.00;;;3.90;;
65162;SDS011;51751;55.714;37.436;2023-06-22T14:38:09;6.88;;;3.90;;
65162;SDS011;51751;55.714;37.436;2023-06-22T14:40:35;6.00;;;3.70;;
65162;SDS011;51751;55.714;37.436;2023-06-22T14:43:01;8.75;;;4.10;;
65162;SDS011;51751;55.714;37.436;2023-06-22T14:45:27;16.35;;;4.75;;